SKG860 CYKM-CYSH
Flight info
| Callsign | SKG860 |
|---|---|
| Flight time | 0h 50m |
| Altitude | 25000 |
| Route | DCT |
| Aircraft | PC12/L-SGCD/S |
Departure
| Time | 2026-05-05 20:55 |
|---|---|
| Airport | Kincardine Municipal Airport (CYKM) |
Arrival
| Time | 2026-05-05 21:45 |
|---|---|
| Airport | Smiths Falls-Montague (Russ Beach) Airport (CYSH) |
| Time | Latitude | Longitude | Altitude | Speed | Heading |
|---|---|---|---|---|---|
| 2026-05-05 20:51 | 44.19903 | -81.59812 | 773 ft | 0 kts | 120° |
| 2026-05-05 20:53 | 44.19890 | -81.59802 | 773 ft | 6 kts | 242° |
| 2026-05-05 20:53 | 44.19892 | -81.59875 | 773 ft | 9 kts | 257° |
| 2026-05-05 20:54 | 44.19856 | -81.59957 | 773 ft | 13 kts | 244° |
| 2026-05-05 20:54 | 44.19931 | -81.60183 | 770 ft | 44 kts | 296° |
| 2026-05-05 20:54 | 44.20137 | -81.60714 | 766 ft | 80 kts | 302° |
| 2026-05-05 20:54 | 44.20450 | -81.61470 | 882 ft | 92 kts | 295° |
| 2026-05-05 20:55 | 44.20776 | -81.62285 | 1068 ft | 97 kts | 290° |
| 2026-05-05 20:55 | 44.21175 | -81.63068 | 1272 ft | 106 kts | 321° |
| 2026-05-05 20:55 | 44.22006 | -81.63223 | 1372 ft | 136 kts | 19° |
| 2026-05-05 20:55 | 44.22651 | -81.62209 | 1601 ft | 155 kts | 82° |
| 2026-05-05 20:56 | 44.22484 | -81.60807 | 2078 ft | 149 kts | 118° |
| 2026-05-05 20:56 | 44.22002 | -81.59493 | 2580 ft | 154 kts | 121° |
| 2026-05-05 20:56 | 44.21511 | -81.58130 | 3069 ft | 160 kts | 121° |
| 2026-05-05 20:56 | 44.21067 | -81.56667 | 3637 ft | 167 kts | 108° |
| 2026-05-05 20:57 | 44.20998 | -81.55065 | 4156 ft | 169 kts | 79° |
| 2026-05-05 20:57 | 44.21254 | -81.53446 | 4750 ft | 171 kts | 75° |
| 2026-05-05 20:57 | 44.21531 | -81.51806 | 5308 ft | 176 kts | 76° |
| 2026-05-05 20:57 | 44.21793 | -81.50148 | 5861 ft | 178 kts | 76° |
| 2026-05-05 20:58 | 44.22058 | -81.48449 | 6367 ft | 180 kts | 76° |
| 2026-05-05 20:58 | 44.22330 | -81.46709 | 6920 ft | 186 kts | 77° |
| 2026-05-05 20:58 | 44.22607 | -81.44934 | 7399 ft | 192 kts | 77° |
| 2026-05-05 20:58 | 44.22895 | -81.43085 | 7879 ft | 197 kts | 77° |
| 2026-05-05 20:59 | 44.23192 | -81.41179 | 8336 ft | 203 kts | 78° |
| 2026-05-05 20:59 | 44.23494 | -81.39246 | 8818 ft | 208 kts | 78° |
| 2026-05-05 20:59 | 44.23805 | -81.37246 | 9290 ft | 213 kts | 79° |
| 2026-05-05 20:59 | 44.24121 | -81.35216 | 9772 ft | 219 kts | 80° |
| 2026-05-05 21:00 | 44.24448 | -81.33115 | 10231 ft | 222 kts | 81° |
| 2026-05-05 21:00 | 44.24779 | -81.30981 | 10684 ft | 226 kts | 81° |
| 2026-05-05 21:00 | 44.25109 | -81.28847 | 11130 ft | 229 kts | 82° |
| 2026-05-05 21:00 | 44.25449 | -81.26654 | 11574 ft | 232 kts | 82° |
| 2026-05-05 21:01 | 44.25789 | -81.24451 | 12008 ft | 235 kts | 83° |
| 2026-05-05 21:01 | 44.26137 | -81.22198 | 12454 ft | 238 kts | 83° |
| 2026-05-05 21:01 | 44.26489 | -81.19920 | 12887 ft | 241 kts | 84° |
| 2026-05-05 21:01 | 44.26846 | -81.17603 | 13331 ft | 244 kts | 84° |
| 2026-05-05 21:02 | 44.27200 | -81.15303 | 13747 ft | 246 kts | 84° |
| 2026-05-05 21:02 | 44.27563 | -81.12939 | 14149 ft | 248 kts | 84° |
| 2026-05-05 21:02 | 44.27923 | -81.10596 | 14531 ft | 250 kts | 84° |
| 2026-05-05 21:02 | 44.28288 | -81.08211 | 14931 ft | 252 kts | 84° |
| 2026-05-05 21:03 | 44.28656 | -81.05800 | 15324 ft | 253 kts | 83° |
| 2026-05-05 21:03 | 44.29025 | -81.03386 | 15714 ft | 255 kts | 83° |
| 2026-05-05 21:03 | 44.29393 | -81.00970 | 16095 ft | 257 kts | 83° |
| 2026-05-05 21:03 | 44.29767 | -80.98511 | 16486 ft | 259 kts | 83° |
| 2026-05-05 21:04 | 44.30139 | -80.96063 | 16872 ft | 261 kts | 83° |
| 2026-05-05 21:04 | 44.30520 | -80.93557 | 17273 ft | 262 kts | 82° |
| 2026-05-05 21:04 | 44.30894 | -80.91084 | 17663 ft | 264 kts | 82° |
| 2026-05-05 21:04 | 44.31277 | -80.88552 | 18047 ft | 266 kts | 82° |
| 2026-05-05 21:05 | 44.31662 | -80.86004 | 18395 ft | 268 kts | 82° |
| 2026-05-05 21:05 | 44.32044 | -80.83469 | 18728 ft | 270 kts | 82° |
| 2026-05-05 21:05 | 44.32432 | -80.80892 | 19068 ft | 271 kts | 82° |
| 2026-05-05 21:05 | 44.32822 | -80.78295 | 19399 ft | 273 kts | 82° |
| 2026-05-05 21:06 | 44.33210 | -80.75709 | 19740 ft | 275 kts | 82° |
| 2026-05-05 21:06 | 44.33605 | -80.73076 | 20076 ft | 277 kts | 82° |
| 2026-05-05 21:06 | 44.33997 | -80.70456 | 20420 ft | 278 kts | 81° |
| 2026-05-05 21:06 | 44.34395 | -80.67791 | 20750 ft | 280 kts | 81° |
| 2026-05-05 21:07 | 44.34790 | -80.65137 | 21086 ft | 282 kts | 81° |
| 2026-05-05 21:07 | 44.35191 | -80.62444 | 21414 ft | 284 kts | 81° |
| 2026-05-05 21:07 | 44.35596 | -80.59715 | 21752 ft | 285 kts | 81° |
| 2026-05-05 21:07 | 44.35999 | -80.57001 | 22091 ft | 287 kts | 81° |
| 2026-05-05 21:08 | 44.36400 | -80.54290 | 22410 ft | 287 kts | 81° |
| 2026-05-05 21:08 | 44.36807 | -80.51535 | 22752 ft | 290 kts | 81° |
| 2026-05-05 21:08 | 44.37218 | -80.48748 | 23083 ft | 292 kts | 81° |
| 2026-05-05 21:08 | 44.37626 | -80.45979 | 23401 ft | 294 kts | 81° |
| 2026-05-05 21:09 | 44.38041 | -80.43154 | 23689 ft | 296 kts | 81° |
| 2026-05-05 21:09 | 44.38456 | -80.40324 | 23986 ft | 297 kts | 81° |
| 2026-05-05 21:09 | 44.38869 | -80.37509 | 24281 ft | 298 kts | 81° |
| 2026-05-05 21:09 | 44.39285 | -80.34664 | 24570 ft | 299 kts | 81° |
| 2026-05-05 21:10 | 44.39700 | -80.31817 | 24810 ft | 303 kts | 82° |
| 2026-05-05 21:10 | 44.40127 | -80.28856 | 24824 ft | 316 kts | 82° |
| 2026-05-05 21:10 | 44.40566 | -80.25819 | 24828 ft | 326 kts | 81° |
| 2026-05-05 21:10 | 44.41026 | -80.22660 | 24831 ft | 334 kts | 81° |
| 2026-05-05 21:11 | 44.41494 | -80.19434 | 24835 ft | 341 kts | 81° |
| 2026-05-05 21:11 | 44.41971 | -80.16135 | 24839 ft | 347 kts | 81° |
| 2026-05-05 21:11 | 44.42446 | -80.12838 | 24834 ft | 351 kts | 81° |
| 2026-05-05 21:11 | 44.42932 | -80.09462 | 24835 ft | 355 kts | 81° |
| 2026-05-05 21:12 | 44.43422 | -80.06049 | 24835 ft | 358 kts | 81° |
| 2026-05-05 21:12 | 44.43913 | -80.02621 | 24834 ft | 360 kts | 81° |
| 2026-05-05 21:12 | 44.44403 | -79.99196 | 24834 ft | 361 kts | 81° |
| 2026-05-05 21:12 | 44.44896 | -79.95736 | 24832 ft | 363 kts | 81° |
| 2026-05-05 21:13 | 44.45386 | -79.92294 | 24831 ft | 364 kts | 81° |
| 2026-05-05 21:13 | 44.45880 | -79.88808 | 24834 ft | 364 kts | 81° |
| 2026-05-05 21:13 | 44.46376 | -79.85312 | 24831 ft | 365 kts | 81° |
| 2026-05-05 21:13 | 44.46869 | -79.81820 | 24830 ft | 365 kts | 81° |
| 2026-05-05 21:14 | 44.47356 | -79.78358 | 24828 ft | 366 kts | 81° |
| 2026-05-05 21:14 | 44.47850 | -79.74849 | 24834 ft | 366 kts | 82° |
| 2026-05-05 21:14 | 44.48335 | -79.71388 | 24825 ft | 366 kts | 82° |
| 2026-05-05 21:14 | 44.48827 | -79.67871 | 24824 ft | 366 kts | 82° |
| 2026-05-05 21:15 | 44.49314 | -79.64387 | 24822 ft | 367 kts | 82° |
| 2026-05-05 21:15 | 44.49806 | -79.60854 | 24819 ft | 367 kts | 82° |
| 2026-05-05 21:15 | 44.50289 | -79.57380 | 24820 ft | 367 kts | 82° |
| 2026-05-05 21:15 | 44.50778 | -79.53846 | 24820 ft | 367 kts | 82° |
| 2026-05-05 21:16 | 44.51259 | -79.50369 | 24820 ft | 366 kts | 82° |
| 2026-05-05 21:16 | 44.51743 | -79.46861 | 24819 ft | 366 kts | 82° |
| 2026-05-05 21:16 | 44.52222 | -79.43379 | 24820 ft | 366 kts | 82° |
| 2026-05-05 21:16 | 44.52706 | -79.39854 | 24820 ft | 366 kts | 82° |
| 2026-05-05 21:17 | 44.53187 | -79.36345 | 24821 ft | 366 kts | 82° |
| 2026-05-05 21:17 | 44.53667 | -79.32830 | 24823 ft | 366 kts | 82° |
| 2026-05-05 21:17 | 44.54141 | -79.29359 | 24824 ft | 366 kts | 82° |
| 2026-05-05 21:17 | 44.54618 | -79.25848 | 24823 ft | 366 kts | 82° |
| 2026-05-05 21:18 | 44.55092 | -79.22353 | 24821 ft | 366 kts | 82° |
| 2026-05-05 21:18 | 44.55567 | -79.18846 | 24833 ft | 366 kts | 82° |
| 2026-05-05 21:18 | 44.56038 | -79.15351 | 24826 ft | 366 kts | 82° |
| 2026-05-05 21:18 | 44.56505 | -79.11889 | 24826 ft | 366 kts | 83° |
| 2026-05-05 21:19 | 44.56980 | -79.08354 | 24830 ft | 366 kts | 82° |
| 2026-05-05 21:19 | 44.57449 | -79.04848 | 24825 ft | 366 kts | 83° |
| 2026-05-05 21:19 | 44.57919 | -79.01334 | 24823 ft | 366 kts | 83° |
| 2026-05-05 21:19 | 44.58389 | -78.97814 | 24829 ft | 366 kts | 83° |
| 2026-05-05 21:20 | 44.58851 | -78.94343 | 24820 ft | 366 kts | 83° |
| 2026-05-05 21:20 | 44.59318 | -78.90818 | 24820 ft | 367 kts | 83° |
| 2026-05-05 21:20 | 44.59785 | -78.87293 | 24822 ft | 367 kts | 83° |
| 2026-05-05 21:20 | 44.60249 | -78.83782 | 24820 ft | 366 kts | 83° |
| 2026-05-05 21:21 | 44.60708 | -78.80295 | 24817 ft | 366 kts | 83° |
| 2026-05-05 21:21 | 44.61171 | -78.76768 | 24819 ft | 366 kts | 83° |
| 2026-05-05 21:21 | 44.61476 | -78.74443 | 24817 ft | 366 kts | 83° |
| 2026-05-05 21:21 | 44.62089 | -78.69755 | 24812 ft | 366 kts | 83° |
| 2026-05-05 21:22 | 44.62400 | -78.67372 | 24816 ft | 366 kts | 83° |
| 2026-05-05 21:22 | 44.62855 | -78.63882 | 24812 ft | 366 kts | 83° |
| 2026-05-05 21:22 | 44.63309 | -78.60387 | 24813 ft | 366 kts | 83° |
| 2026-05-05 21:22 | 44.63765 | -78.56867 | 24812 ft | 366 kts | 83° |
| 2026-05-05 21:23 | 44.64222 | -78.53326 | 24807 ft | 366 kts | 83° |
| 2026-05-05 21:23 | 44.64673 | -78.49830 | 24812 ft | 366 kts | 83° |
| 2026-05-05 21:23 | 44.65127 | -78.46304 | 24809 ft | 366 kts | 83° |
| 2026-05-05 21:23 | 44.65572 | -78.42832 | 24809 ft | 365 kts | 83° |
| 2026-05-05 21:24 | 44.66025 | -78.39288 | 24805 ft | 365 kts | 83° |
| 2026-05-05 21:24 | 44.66474 | -78.35766 | 24803 ft | 365 kts | 83° |
| 2026-05-05 21:24 | 44.66916 | -78.32293 | 24811 ft | 365 kts | 83° |
| 2026-05-05 21:24 | 44.67364 | -78.28769 | 24801 ft | 365 kts | 83° |
| 2026-05-05 21:25 | 44.67810 | -78.25240 | 24800 ft | 365 kts | 83° |
| 2026-05-05 21:25 | 44.68250 | -78.21759 | 24800 ft | 364 kts | 83° |
| 2026-05-05 21:25 | 44.68693 | -78.18245 | 24793 ft | 364 kts | 83° |
| 2026-05-05 21:25 | 44.69128 | -78.14783 | 24793 ft | 364 kts | 83° |
| 2026-05-05 21:26 | 44.69570 | -78.11251 | 24790 ft | 364 kts | 84° |
| 2026-05-05 21:26 | 44.70004 | -78.07781 | 24787 ft | 363 kts | 84° |
| 2026-05-05 21:26 | 44.70442 | -78.04269 | 24790 ft | 364 kts | 84° |
| 2026-05-05 21:26 | 44.70878 | -78.00757 | 24783 ft | 364 kts | 84° |
| 2026-05-05 21:27 | 44.71315 | -77.97237 | 24786 ft | 364 kts | 84° |
| 2026-05-05 21:27 | 44.71745 | -77.93760 | 24780 ft | 363 kts | 84° |
| 2026-05-05 21:27 | 44.72173 | -77.90294 | 24777 ft | 363 kts | 84° |
| 2026-05-05 21:27 | 44.72604 | -77.86789 | 24778 ft | 362 kts | 84° |
| 2026-05-05 21:28 | 44.73034 | -77.83287 | 24776 ft | 362 kts | 84° |
| 2026-05-05 21:28 | 44.73460 | -77.79800 | 24775 ft | 362 kts | 84° |
| 2026-05-05 21:28 | 44.73889 | -77.76290 | 24772 ft | 362 kts | 84° |
| 2026-05-05 21:28 | 44.74309 | -77.72838 | 24666 ft | 364 kts | 84° |
| 2026-05-05 21:29 | 44.74738 | -77.69283 | 24229 ft | 371 kts | 84° |
| 2026-05-05 21:29 | 44.75170 | -77.65713 | 23814 ft | 374 kts | 84° |
| 2026-05-05 21:29 | 44.75608 | -77.62102 | 23398 ft | 373 kts | 84° |
| 2026-05-05 21:29 | 44.76045 | -77.58491 | 22886 ft | 372 kts | 84° |
| 2026-05-05 21:30 | 44.76477 | -77.54889 | 22368 ft | 370 kts | 84° |
| 2026-05-05 21:30 | 44.76897 | -77.51382 | 21870 ft | 368 kts | 84° |
| 2026-05-05 21:30 | 44.77322 | -77.47821 | 21365 ft | 367 kts | 84° |
| 2026-05-05 21:30 | 44.77746 | -77.44267 | 20881 ft | 366 kts | 84° |
| 2026-05-05 21:31 | 44.78161 | -77.40769 | 20404 ft | 364 kts | 84° |
| 2026-05-05 21:31 | 44.78578 | -77.37251 | 19924 ft | 363 kts | 84° |
| 2026-05-05 21:31 | 44.78994 | -77.33731 | 19461 ft | 361 kts | 85° |
| 2026-05-05 21:31 | 44.79404 | -77.30245 | 19002 ft | 360 kts | 85° |
| 2026-05-05 21:32 | 44.79810 | -77.26791 | 18553 ft | 360 kts | 85° |
| 2026-05-05 21:32 | 44.80219 | -77.23295 | 18109 ft | 360 kts | 85° |
| 2026-05-05 21:32 | 44.80622 | -77.19855 | 17612 ft | 359 kts | 85° |
| 2026-05-05 21:32 | 44.81026 | -77.16389 | 17111 ft | 358 kts | 85° |
| 2026-05-05 21:33 | 44.81429 | -77.12925 | 16611 ft | 356 kts | 85° |
| 2026-05-05 21:33 | 44.81828 | -77.09479 | 16121 ft | 355 kts | 85° |
| 2026-05-05 21:33 | 44.82220 | -77.06086 | 15649 ft | 353 kts | 85° |
| 2026-05-05 21:33 | 44.82616 | -77.02658 | 15184 ft | 353 kts | 85° |
| 2026-05-05 21:34 | 44.83008 | -76.99243 | 14737 ft | 352 kts | 85° |
| 2026-05-05 21:34 | 44.83395 | -76.95873 | 14309 ft | 351 kts | 85° |
| 2026-05-05 21:34 | 44.83784 | -76.92465 | 13879 ft | 350 kts | 85° |
| 2026-05-05 21:34 | 44.84171 | -76.89073 | 13431 ft | 349 kts | 85° |
| 2026-05-05 21:35 | 44.84551 | -76.85737 | 12956 ft | 348 kts | 85° |
| 2026-05-05 21:35 | 44.84934 | -76.82363 | 12494 ft | 346 kts | 85° |
| 2026-05-05 21:35 | 44.85312 | -76.79016 | 12037 ft | 343 kts | 85° |
| 2026-05-05 21:35 | 44.85683 | -76.75728 | 11609 ft | 341 kts | 85° |
| 2026-05-05 21:36 | 44.86055 | -76.72424 | 11180 ft | 338 kts | 86° |
| 2026-05-05 21:36 | 44.86421 | -76.69158 | 10754 ft | 336 kts | 86° |
| 2026-05-05 21:36 | 44.86781 | -76.65941 | 10343 ft | 333 kts | 86° |
| 2026-05-05 21:36 | 44.87142 | -76.62709 | 9934 ft | 331 kts | 86° |
| 2026-05-05 21:37 | 44.87499 | -76.59505 | 9513 ft | 330 kts | 86° |
| 2026-05-05 21:37 | 44.87849 | -76.56347 | 9059 ft | 326 kts | 85° |
| 2026-05-05 21:37 | 44.88199 | -76.53193 | 8613 ft | 321 kts | 85° |
| 2026-05-05 21:37 | 44.88537 | -76.50135 | 8177 ft | 316 kts | 85° |
| 2026-05-05 21:38 | 44.88874 | -76.47075 | 7744 ft | 312 kts | 84° |
| 2026-05-05 21:38 | 44.89206 | -76.44046 | 7312 ft | 310 kts | 84° |
| 2026-05-05 21:38 | 44.89532 | -76.41078 | 6885 ft | 307 kts | 83° |
| 2026-05-05 21:38 | 44.89853 | -76.38140 | 6472 ft | 304 kts | 83° |
| 2026-05-05 21:39 | 44.90175 | -76.35200 | 6050 ft | 300 kts | 83° |
| 2026-05-05 21:39 | 44.90489 | -76.32315 | 5613 ft | 295 kts | 82° |
| 2026-05-05 21:39 | 44.90795 | -76.29486 | 5177 ft | 288 kts | 82° |
| 2026-05-05 21:39 | 44.91090 | -76.26760 | 4744 ft | 278 kts | 82° |
| 2026-05-05 21:40 | 44.91568 | -76.24182 | 4310 ft | 267 kts | 70° |
| 2026-05-05 21:40 | 44.92199 | -76.21757 | 3872 ft | 259 kts | 68° |
| 2026-05-05 21:40 | 44.92833 | -76.19400 | 3436 ft | 254 kts | 68° |
| 2026-05-05 21:40 | 44.93446 | -76.17106 | 3008 ft | 250 kts | 67° |
| 2026-05-05 21:41 | 44.94049 | -76.14804 | 2582 ft | 248 kts | 68° |
| 2026-05-05 21:41 | 44.94641 | -76.12517 | 2145 ft | 246 kts | 67° |
| 2026-05-05 21:41 | 44.95222 | -76.10269 | 1808 ft | 240 kts | 67° |
| 2026-05-05 21:41 | 44.95782 | -76.08101 | 1505 ft | 233 kts | 67° |
| 2026-05-05 21:42 | 44.96310 | -76.06052 | 1494 ft | 208 kts | 68° |
| 2026-05-05 21:42 | 44.96793 | -76.04217 | 1490 ft | 200 kts | 68° |
| 2026-05-05 21:42 | 44.97293 | -76.02361 | 1492 ft | 203 kts | 67° |
| 2026-05-05 21:42 | 44.97785 | -76.00464 | 1494 ft | 208 kts | 69° |
| 2026-05-05 21:43 | 44.98303 | -75.98546 | 1490 ft | 209 kts | 68° |
| 2026-05-05 21:43 | 44.98840 | -75.96610 | 1498 ft | 212 kts | 66° |
| 2026-05-05 21:43 | 44.99336 | -75.94734 | 1486 ft | 198 kts | 68° |
| 2026-05-05 21:43 | 44.99632 | -75.92917 | 1487 ft | 184 kts | 97° |
| 2026-05-05 21:44 | 44.99071 | -75.91434 | 1483 ft | 164 kts | 143° |
| 2026-05-05 21:44 | 44.98161 | -75.90602 | 1296 ft | 150 kts | 175° |
| 2026-05-05 21:44 | 44.97173 | -75.90653 | 1089 ft | 139 kts | 202° |
| 2026-05-05 21:44 | 44.96322 | -75.91201 | 930 ft | 129 kts | 221° |
| 2026-05-05 21:45 | 44.95746 | -75.92108 | 803 ft | 121 kts | 233° |
| 2026-05-05 21:45 | 44.95213 | -75.92949 | 551 ft | 106 kts | 232° |
| 2026-05-05 21:45 | 44.94790 | -75.93673 | 414 ft | 83 kts | 236° |
| 2026-05-05 21:45 | 44.94566 | -75.94041 | 412 ft | 16 kts | 236° |
| 2026-05-05 21:46 | 44.94570 | -75.94032 | 415 ft | 13 kts | 45° |
| 2026-05-05 21:46 | 44.94634 | -75.93950 | 414 ft | 10 kts | 343° |
| 2026-05-05 21:46 | 44.94678 | -75.93993 | 412 ft | 6 kts | 313° |
| 2026-05-05 21:46 | 44.94727 | -75.94008 | 418 ft | 12 kts | 58° |
| 2026-05-05 21:47 | 44.94739 | -75.94000 | 417 ft | 0 kts | 299° |